Rouseville, Pennsylvania
Current Conditions -  °F | °C
As of 4:35 PM on Friday 28 Nov 2014 (Local Time) from KFKL Reporting Station
Overcast Overcast  
Wind Chill: 17°   Ceiling: 3100
Heat Index: 23°   Visibility: 10mi
Dew Point: 10°   Wind: 5mph
Humidity: 59%   Direction: 230°SW
Pressure: 30.21"   Gusts: NA
Location:  41.47°N, 79.69°W
Report Text: KFKL 282135Z AUTO 23004KT 10SM OVC031 M05/M12 A3021 RMK AO1
Loading
Personal Weather Stations






























Interactive Weather Map New forecast layout! Learn more

10-Day Weather Forecast

Advertisements
Track Severe Weather on mobile